createdAt,value
2018-04-19T00:00:06.190Z,11.90
2018-04-19T00:01:05.576Z,11.80
2018-04-19T00:02:05.638Z,11.80
2018-04-19T00:03:05.379Z,11.80
2018-04-19T00:04:05.334Z,11.70
2018-04-19T00:05:05.575Z,11.70
2018-04-19T00:06:05.315Z,11.70
2018-04-19T00:07:06.356Z,11.70
2018-04-19T00:08:05.683Z,11.60
2018-04-19T00:09:05.377Z,11.60
2018-04-19T00:10:05.000Z,11.60
2018-04-19T00:11:09.741Z,11.60
2018-04-19T00:12:05.416Z,11.60
2018-04-19T00:13:05.537Z,11.60
2018-04-19T00:14:05.413Z,11.60
2018-04-19T00:15:05.734Z,11.50
2018-04-19T00:16:05.464Z,11.50
2018-04-19T00:17:05.704Z,11.50
2018-04-19T00:18:05.022Z,11.50
2018-04-19T00:19:04.708Z,11.50
2018-04-19T00:20:05.208Z,11.50
2018-04-19T00:21:05.216Z,11.40
2018-04-19T00:22:06.024Z,11.40
2018-04-19T00:23:05.639Z,11.40
2018-04-19T00:24:05.349Z,11.30
2018-04-19T00:25:05.724Z,11.30
2018-04-19T00:26:05.100Z,11.30
2018-04-19T00:27:06.120Z,11.30
2018-04-19T00:28:05.596Z,11.20
2018-04-19T00:29:05.856Z,11.20
2018-04-19T00:30:05.311Z,11.20
2018-04-19T00:31:05.645Z,11.10
2018-04-19T00:32:05.711Z,11.10
2018-04-19T00:33:04.722Z,11.10
2018-04-19T00:34:06.411Z,11.10
2018-04-19T00:35:05.369Z,11.00
2018-04-19T00:36:06.015Z,11.00
2018-04-19T00:37:05.651Z,11.00
2018-04-19T00:38:05.039Z,11.00
2018-04-19T00:39:05.673Z,11.00
2018-04-19T00:40:05.650Z,10.90
2018-04-19T00:41:06.488Z,10.90
2018-04-19T00:42:04.731Z,10.90
2018-04-19T00:43:05.929Z,10.90
2018-04-19T00:44:06.712Z,10.90
2018-04-19T00:45:05.371Z,10.90
2018-04-19T00:46:06.659Z,10.90
2018-04-19T00:47:05.434Z,10.90
2018-04-19T00:48:06.600Z,10.80
2018-04-19T00:49:05.670Z,10.80
2018-04-19T00:50:05.064Z,10.80
2018-04-19T00:51:06.351Z,10.80
2018-04-19T00:52:05.682Z,10.80
2018-04-19T00:53:06.335Z,10.80
2018-04-19T00:54:05.736Z,10.80
2018-04-19T00:55:06.618Z,10.80
2018-04-19T00:56:05.878Z,10.80
2018-04-19T00:57:06.178Z,10.80
2018-04-19T00:58:05.835Z,10.80
2018-04-19T00:59:05.168Z,10.80
2018-04-19T01:00:05.559Z,10.80
2018-04-19T01:01:05.753Z,10.80
2018-04-19T01:02:05.052Z,10.70
2018-04-19T01:03:04.771Z,10.80
2018-04-19T01:04:05.268Z,10.70
2018-04-19T01:05:05.686Z,10.80
2018-04-19T01:06:05.372Z,10.80
2018-04-19T01:07:05.257Z,10.80
2018-04-19T01:08:05.309Z,10.80
2018-04-19T01:09:06.809Z,10.80
2018-04-19T01:10:05.586Z,10.70
2018-04-19T01:11:05.632Z,10.80
2018-04-19T01:12:05.022Z,10.70
2018-04-19T01:13:05.258Z,10.70
2018-04-19T01:14:05.123Z,10.70
2018-04-19T01:15:06.302Z,10.70
2018-04-19T01:16:05.640Z,10.70
2018-04-19T01:17:06.579Z,10.70
2018-04-19T01:18:10.066Z,10.70
2018-04-19T01:19:05.049Z,10.70
2018-04-19T01:20:05.388Z,10.60
2018-04-19T01:21:05.024Z,10.60
2018-04-19T01:22:05.464Z,10.60
2018-04-19T01:23:05.077Z,10.60
2018-04-19T01:24:04.771Z,10.60
2018-04-19T01:25:05.103Z,10.60
2018-04-19T01:26:05.764Z,10.60
2018-04-19T01:27:05.386Z,10.50
2018-04-19T01:28:05.762Z,10.50
2018-04-19T01:29:05.177Z,10.50
2018-04-19T01:30:06.413Z,10.50
2018-04-19T01:31:04.855Z,10.50
2018-04-19T01:32:05.805Z,10.40
2018-04-19T01:33:05.898Z,10.40
2018-04-19T01:34:06.281Z,10.40
2018-04-19T01:35:05.156Z,10.40
2018-04-19T01:36:06.666Z,10.30
2018-04-19T01:37:04.774Z,10.30
2018-04-19T01:38:05.664Z,10.30
2018-04-19T01:39:05.834Z,10.30
2018-04-19T01:40:05.919Z,10.30
2018-04-19T01:41:05.767Z,10.20
2018-04-19T01:42:06.362Z,10.20
2018-04-19T01:43:05.495Z,10.20
2018-04-19T01:44:05.307Z,10.20
2018-04-19T01:45:05.477Z,10.20
2018-04-19T01:46:05.414Z,10.20
2018-04-19T01:47:06.692Z,10.10
2018-04-19T01:48:05.599Z,10.10
2018-04-19T01:49:05.288Z,10.10
2018-04-19T01:50:05.920Z,10.10
2018-04-19T01:51:05.611Z,10.00
2018-04-19T01:52:05.918Z,10.00
2018-04-19T01:53:05.609Z,10.00
2018-04-19T01:54:05.949Z,10.00
2018-04-19T01:55:05.183Z,10.00
2018-04-19T01:56:05.480Z,10.00
2018-04-19T01:57:10.061Z,9.90
2018-04-19T01:58:06.318Z,9.90
2018-04-19T01:59:05.124Z,9.90
2018-04-19T02:00:04.798Z,9.80
2018-04-19T02:01:04.793Z,9.80
2018-04-19T02:02:04.874Z,9.80
2018-04-19T02:03:04.812Z,9.80
2018-04-19T02:04:05.693Z,9.80
2018-04-19T02:05:05.097Z,9.80
2018-04-19T02:06:06.986Z,9.70
2018-04-19T02:07:05.225Z,9.70
2018-04-19T02:08:05.628Z,9.70
2018-04-19T02:09:05.480Z,9.70
2018-04-19T02:10:05.205Z,9.70
2018-04-19T02:11:04.893Z,9.70
2018-04-19T02:12:05.182Z,9.70
2018-04-19T02:13:05.206Z,9.60
2018-04-19T02:14:05.340Z,9.60
2018-04-19T02:15:05.194Z,9.60
2018-04-19T02:16:05.109Z,9.60
2018-04-19T02:17:06.696Z,9.60
2018-04-19T02:18:05.552Z,9.60
2018-04-19T02:19:06.003Z,9.60
2018-04-19T02:20:05.396Z,9.60
2018-04-19T02:21:04.876Z,9.60
2018-04-19T02:22:04.829Z,9.50
2018-04-19T02:23:05.134Z,9.60
2018-04-19T02:24:05.436Z,9.50
2018-04-19T02:25:06.724Z,9.50
2018-04-19T02:26:06.127Z,9.50
2018-04-19T02:27:05.951Z,9.50
2018-04-19T02:28:06.976Z,9.50
2018-04-19T02:29:04.910Z,9.50
2018-04-19T02:30:05.063Z,9.50
2018-04-19T02:31:05.415Z,9.50
2018-04-19T02:32:06.028Z,9.50
2018-04-19T02:33:04.835Z,9.50
2018-04-19T02:34:06.349Z,9.50
2018-04-19T02:35:05.512Z,9.50
2018-04-19T02:36:06.718Z,9.50
2018-04-19T02:37:05.968Z,9.50
2018-04-19T02:38:05.957Z,9.50
2018-04-19T02:39:05.946Z,9.50
2018-04-19T02:40:06.016Z,9.50
2018-04-19T02:41:05.091Z,9.50
2018-04-19T02:42:06.398Z,9.50
2018-04-19T02:43:04.922Z,9.50
2018-04-19T02:44:05.522Z,9.50
2018-04-19T02:45:05.532Z,9.50
2018-04-19T02:46:05.145Z,9.50
2018-04-19T02:47:05.536Z,9.50
2018-04-19T02:48:05.214Z,9.50
2018-04-19T02:49:05.522Z,9.50
2018-04-19T02:50:06.671Z,9.50
2018-04-19T02:51:10.162Z,9.50
2018-04-19T02:52:06.479Z,9.40
2018-04-19T02:53:04.911Z,9.40
2018-04-19T02:54:05.191Z,9.40
2018-04-19T02:55:06.110Z,9.40
2018-04-19T02:56:05.232Z,9.40
2018-04-19T02:57:06.006Z,9.40
2018-04-19T02:58:05.356Z,9.40
2018-04-19T02:59:05.976Z,9.30
2018-04-19T03:00:04.847Z,9.30
2018-04-19T03:01:06.657Z,9.30
2018-04-19T03:02:05.355Z,9.30
2018-04-19T03:03:04.936Z,9.30
2018-04-19T03:04:05.967Z,9.30
2018-04-19T03:05:05.883Z,9.30
2018-04-19T03:06:05.573Z,9.30
2018-04-19T03:07:05.791Z,9.30
2018-04-19T03:08:05.668Z,9.20
2018-04-19T03:09:05.055Z,9.20
2018-04-19T03:10:06.772Z,9.20
2018-04-19T03:11:06.909Z,9.20
2018-04-19T03:12:04.849Z,9.20
2018-04-19T03:13:05.935Z,9.20
2018-04-19T03:14:07.326Z,9.10
2018-04-19T03:15:05.999Z,9.10
2018-04-19T03:16:05.703Z,9.10
2018-04-19T03:17:05.570Z,9.10
2018-04-19T03:18:05.426Z,9.00
2018-04-19T03:19:05.866Z,9.00
2018-04-19T03:20:05.367Z,9.00
2018-04-19T03:21:08.144Z,9.00
2018-04-19T03:22:05.303Z,9.00
2018-04-19T03:23:05.256Z,9.00
2018-04-19T03:24:05.876Z,9.00
2018-04-19T03:25:04.869Z,9.00
2018-04-19T03:26:05.482Z,9.00
2018-04-19T03:27:05.494Z,9.00
2018-04-19T03:28:05.585Z,9.00
2018-04-19T03:29:05.997Z,9.00
2018-04-19T03:30:05.871Z,9.00
2018-04-19T03:31:05.261Z,9.00
2018-04-19T03:32:05.914Z,9.00
2018-04-19T03:33:05.635Z,9.00
2018-04-19T03:34:05.697Z,9.00
2018-04-19T03:35:05.897Z,9.00
2018-04-19T03:36:04.950Z,9.00
2018-04-19T03:37:05.893Z,9.00
2018-04-19T03:38:05.223Z,9.00
2018-04-19T03:39:05.273Z,9.00
2018-04-19T03:40:06.954Z,9.00
2018-04-19T03:41:05.501Z,8.90
2018-04-19T03:42:05.086Z,8.90
2018-04-19T03:43:05.638Z,8.90
2018-04-19T03:44:05.926Z,8.90
2018-04-19T03:45:05.386Z,8.90
2018-04-19T03:46:04.900Z,8.80
2018-04-19T03:47:05.502Z,8.80
2018-04-19T03:48:06.637Z,8.80
2018-04-19T03:49:06.017Z,8.80
2018-04-19T03:50:05.754Z,8.80
2018-04-19T03:51:05.397Z,8.80
2018-04-19T03:52:04.829Z,8.80
2018-04-19T03:53:05.213Z,8.80
2018-04-19T03:54:05.771Z,8.80
2018-04-19T03:55:05.747Z,8.80
2018-04-19T03:56:06.707Z,8.70
2018-04-19T03:57:05.532Z,8.70
2018-04-19T03:58:04.893Z,8.70
2018-04-19T03:59:06.167Z,8.70
2018-04-19T04:00:05.207Z,8.70
2018-04-19T04:01:05.879Z,8.70
2018-04-19T04:02:05.615Z,8.70
2018-04-19T04:03:05.111Z,8.70
2018-04-19T04:04:05.236Z,8.70
2018-04-19T04:05:05.232Z,8.70
2018-04-19T04:06:05.571Z,8.70
2018-04-19T04:07:05.543Z,8.70
2018-04-19T04:08:05.543Z,8.70
2018-04-19T04:09:05.428Z,8.70
2018-04-19T04:10:05.467Z,8.70
2018-04-19T04:11:05.111Z,8.70
2018-04-19T04:12:05.610Z,8.70
2018-04-19T04:13:05.549Z,8.70
2018-04-19T04:14:10.580Z,8.70
2018-04-19T04:15:06.050Z,8.70
2018-04-19T04:16:05.727Z,8.60
2018-04-19T04:17:04.984Z,8.60
2018-04-19T04:18:04.931Z,8.60
2018-04-19T04:19:05.791Z,8.60
2018-04-19T04:20:05.299Z,8.60
2018-04-19T04:21:05.622Z,8.60
2018-04-19T04:22:05.245Z,8.60
2018-04-19T04:23:05.428Z,8.60
2018-04-19T04:24:04.877Z,8.60
2018-04-19T04:25:06.777Z,8.60
2018-04-19T04:26:05.752Z,8.60
2018-04-19T04:27:05.309Z,8.60
2018-04-19T04:28:05.128Z,8.60
2018-04-19T04:29:05.616Z,8.60
2018-04-19T04:30:04.924Z,8.60
2018-04-19T04:31:05.051Z,8.60
2018-04-19T04:32:06.057Z,8.70
2018-04-19T04:33:04.935Z,8.70
2018-04-19T04:34:05.239Z,8.70
2018-04-19T04:35:05.781Z,8.70
2018-04-19T04:36:06.576Z,8.70
2018-04-19T04:37:05.239Z,8.70
2018-04-19T04:38:04.936Z,8.70
2018-04-19T04:39:05.347Z,8.70
2018-04-19T04:40:06.133Z,8.70
2018-04-19T04:41:05.138Z,8.70
2018-04-19T04:42:06.069Z,8.70
2018-04-19T04:43:05.265Z,8.70
2018-04-19T04:44:06.078Z,8.80
2018-04-19T04:45:05.583Z,8.80
2018-04-19T04:46:05.019Z,8.80
2018-04-19T04:47:04.940Z,8.90
2018-04-19T04:48:05.460Z,9.00
2018-04-19T04:49:05.831Z,9.10
2018-04-19T04:50:07.002Z,9.20
2018-04-19T04:51:05.964Z,9.30
2018-04-19T04:52:05.139Z,9.40
2018-04-19T04:53:07.116Z,9.50
2018-04-19T04:54:05.583Z,9.60
2018-04-19T04:55:05.261Z,9.70
2018-04-19T04:56:05.656Z,9.90
2018-04-19T04:57:05.582Z,10.00
2018-04-19T04:58:04.957Z,10.10
2018-04-19T04:59:05.469Z,10.30
2018-04-19T05:00:05.596Z,10.40
2018-04-19T05:01:05.275Z,10.50
2018-04-19T05:02:05.627Z,10.60
2018-04-19T05:03:05.172Z,10.70
2018-04-19T05:04:05.043Z,10.70
2018-04-19T05:05:05.478Z,10.80
2018-04-19T05:06:06.558Z,10.90
2018-04-19T05:07:05.276Z,11.00
2018-04-19T05:08:05.315Z,11.00
2018-04-19T05:09:05.279Z,11.10
2018-04-19T05:10:05.036Z,11.10
2018-04-19T05:11:09.152Z,11.20
2018-04-19T05:12:10.030Z,11.30
2018-04-19T05:13:06.102Z,11.40
2018-04-19T05:14:06.161Z,11.50
2018-04-19T05:15:05.295Z,11.60
2018-04-19T05:16:09.997Z,11.70
2018-04-19T05:17:05.052Z,11.80
2018-04-19T05:18:06.167Z,11.90
2018-04-19T05:19:05.539Z,12.00
2018-04-19T05:20:06.118Z,12.10
2018-04-19T05:21:05.250Z,12.20
2018-04-19T05:22:05.179Z,12.30
2018-04-19T05:23:05.616Z,12.40
2018-04-19T05:24:05.198Z,12.50
2018-04-19T05:25:05.354Z,12.60
2018-04-19T05:26:05.366Z,12.70
2018-04-19T05:27:05.988Z,12.80
2018-04-19T05:28:05.190Z,13.00
2018-04-19T05:29:06.267Z,13.10
2018-04-19T05:30:06.926Z,13.30
2018-04-19T05:31:06.110Z,13.40
2018-04-19T05:32:06.113Z,13.50
2018-04-19T05:33:05.022Z,13.70
2018-04-19T05:34:05.504Z,13.80
2018-04-19T05:35:05.299Z,14.00
2018-04-19T05:36:05.007Z,14.10
2018-04-19T05:37:05.007Z,14.20
2018-04-19T05:38:05.615Z,14.40
2018-04-19T05:39:05.830Z,14.50
2018-04-19T05:40:04.936Z,14.60
2018-04-19T05:41:05.520Z,14.70
2018-04-19T05:42:10.013Z,14.80
2018-04-19T05:43:04.992Z,15.00
2018-04-19T05:44:05.071Z,15.10
2018-04-19T05:45:05.988Z,15.20
2018-04-19T05:46:05.324Z,15.30
2018-04-19T05:47:06.501Z,15.40
2018-04-19T05:48:05.087Z,15.50
2018-04-19T05:49:06.141Z,15.60
2018-04-19T05:50:06.008Z,15.80
2018-04-19T05:51:05.939Z,15.90
2018-04-19T05:52:05.416Z,16.00
2018-04-19T05:53:05.628Z,16.10
2018-04-19T05:54:05.019Z,16.20
2018-04-19T05:55:07.192Z,16.30
2018-04-19T05:56:06.638Z,16.40
2018-04-19T05:57:05.706Z,16.50
2018-04-19T05:58:06.225Z,16.60
2018-04-19T05:59:05.210Z,16.60
2018-04-19T06:00:05.201Z,16.70
2018-04-19T06:01:05.636Z,16.80
2018-04-19T06:02:05.394Z,16.90
2018-04-19T06:03:05.835Z,17.00
2018-04-19T06:04:05.210Z,17.10
2018-04-19T06:05:05.047Z,17.20
2018-04-19T06:06:05.015Z,17.30
2018-04-19T06:07:05.353Z,17.40
2018-04-19T06:08:05.213Z,17.40
2018-04-19T06:09:05.521Z,17.50
2018-04-19T06:10:05.841Z,17.60
2018-04-19T06:11:06.461Z,17.70
2018-04-19T06:12:09.063Z,17.70
2018-04-19T06:13:06.153Z,17.80
2018-04-19T06:14:05.853Z,17.90
2018-04-19T06:15:05.021Z,18.00
2018-04-19T06:16:05.545Z,18.00
2018-04-19T06:17:05.414Z,18.10
2018-04-19T06:18:05.587Z,18.20
2018-04-19T06:19:04.727Z,18.20
2018-04-19T06:20:05.697Z,18.30
2018-04-19T06:21:06.856Z,18.40
2018-04-19T06:22:06.045Z,18.40
2018-04-19T06:23:05.286Z,18.40
2018-04-19T06:24:05.676Z,18.50
2018-04-19T06:25:05.046Z,18.60
2018-04-19T06:26:05.354Z,18.60
2018-04-19T06:27:06.050Z,18.70
2018-04-19T06:28:06.945Z,18.70
2018-04-19T06:29:06.015Z,18.80
2018-04-19T06:30:07.170Z,18.80
2018-04-19T06:31:05.733Z,18.80
2018-04-19T06:32:05.865Z,18.90
2018-04-19T06:33:05.038Z,18.90
2018-04-19T06:34:05.380Z,19.00
2018-04-19T06:35:05.555Z,19.00
2018-04-19T06:36:06.053Z,19.10
2018-04-19T06:37:05.434Z,19.10
2018-04-19T06:38:05.051Z,19.20
2018-04-19T06:39:05.685Z,19.20
2018-04-19T06:40:05.679Z,19.30
2018-04-19T06:41:07.871Z,19.30
2018-04-19T06:42:05.058Z,19.40
2018-04-19T06:43:06.039Z,19.40
2018-04-19T06:44:05.451Z,19.50
2018-04-19T06:45:05.818Z,19.50
2018-04-19T06:46:05.432Z,19.60
2018-04-19T06:47:06.151Z,19.60
2018-04-19T06:48:05.583Z,19.70
2018-04-19T06:49:05.130Z,19.70
2018-04-19T06:50:04.751Z,19.80
2018-04-19T06:51:04.761Z,19.90
2018-04-19T06:52:05.932Z,19.90
2018-04-19T06:53:05.367Z,20.00
2018-04-19T06:54:06.182Z,20.00
2018-04-19T06:55:05.178Z,20.10
2018-04-19T06:56:05.386Z,20.10
2018-04-19T06:57:05.080Z,20.20
2018-04-19T06:58:04.777Z,20.20
2018-04-19T06:59:05.759Z,20.30
2018-04-19T07:00:05.381Z,20.30
2018-04-19T07:01:06.173Z,20.40
2018-04-19T07:02:05.596Z,20.40
2018-04-19T07:03:05.577Z,20.40
2018-04-19T07:04:04.729Z,20.40
2018-04-19T07:05:05.784Z,20.40
2018-04-19T07:06:05.964Z,20.50
2018-04-19T07:07:05.340Z,20.50
2018-04-19T07:08:05.277Z,20.50
2018-04-19T07:09:05.699Z,20.50
2018-04-19T07:10:05.927Z,20.50
2018-04-19T07:11:06.655Z,20.60
2018-04-19T07:12:07.230Z,20.60
2018-04-19T07:13:06.032Z,20.60
2018-04-19T07:14:05.717Z,20.60
2018-04-19T07:15:04.770Z,20.60
2018-04-19T07:16:05.033Z,20.70
2018-04-19T07:17:05.160Z,20.70
2018-04-19T07:18:06.677Z,20.70
2018-04-19T07:19:05.406Z,20.70
2018-04-19T07:20:05.488Z,20.70
2018-04-19T07:21:05.285Z,20.70
2018-04-19T07:22:08.337Z,20.70
2018-04-19T07:23:05.482Z,20.70
2018-04-19T07:24:05.308Z,20.80
2018-04-19T07:25:05.608Z,20.80
2018-04-19T07:26:05.356Z,20.80
2018-04-19T07:27:04.789Z,20.90
2018-04-19T07:28:04.789Z,20.90
2018-04-19T07:29:05.485Z,20.90
2018-04-19T07:30:06.570Z,20.90
2018-04-19T07:31:05.544Z,20.90
2018-04-19T07:32:05.959Z,20.90
2018-04-19T07:33:04.863Z,21.00
2018-04-19T07:34:05.479Z,21.00
2018-04-19T07:35:05.296Z,21.00
2018-04-19T07:36:05.799Z,21.10
2018-04-19T07:37:06.071Z,21.10
2018-04-19T07:38:05.350Z,21.10
2018-04-19T07:39:06.105Z,21.10
2018-04-19T07:40:05.970Z,21.20
2018-04-19T07:41:04.803Z,21.20
2018-04-19T07:42:05.796Z,21.20
2018-04-19T07:43:05.375Z,21.30
2018-04-19T07:44:06.113Z,21.30
2018-04-19T07:45:05.616Z,21.30
2018-04-19T07:46:05.593Z,21.30
2018-04-19T07:47:05.617Z,21.40
2018-04-19T07:48:05.327Z,21.40
2018-04-19T07:49:05.970Z,21.40
2018-04-19T07:50:05.447Z,21.40
2018-04-19T07:51:05.170Z,21.40
2018-04-19T07:52:10.797Z,21.40
2018-04-19T07:53:05.628Z,21.40
2018-04-19T07:54:05.228Z,21.40
2018-04-19T07:55:05.633Z,21.40
2018-04-19T07:56:05.371Z,21.50
2018-04-19T07:57:04.827Z,21.50
2018-04-19T07:58:04.815Z,21.50
2018-04-19T07:59:06.638Z,21.60
2018-04-19T08:00:04.824Z,21.60
2018-04-19T08:01:05.811Z,21.70
2018-04-19T08:02:05.873Z,21.70
2018-04-19T08:03:05.449Z,21.80
2018-04-19T08:04:05.823Z,21.80
2018-04-19T08:05:05.675Z,21.90
2018-04-19T08:06:05.130Z,21.90
2018-04-19T08:07:04.846Z,22.00
2018-04-19T08:08:05.571Z,22.00
2018-04-19T08:09:05.636Z,22.00
2018-04-19T08:10:06.338Z,22.10
2018-04-19T08:11:05.527Z,22.10
2018-04-19T08:12:05.096Z,22.10
2018-04-19T08:13:04.864Z,22.20
2018-04-19T08:14:04.906Z,22.20
2018-04-19T08:15:04.849Z,22.20
2018-04-19T08:16:05.841Z,22.20
2018-04-19T08:17:05.702Z,22.30
2018-04-19T08:18:05.832Z,22.30
2018-04-19T08:19:06.123Z,22.30
2018-04-19T08:20:05.836Z,22.30
2018-04-19T08:21:05.587Z,22.30
2018-04-19T08:22:04.914Z,22.30
2018-04-19T08:23:05.237Z,22.40
2018-04-19T08:24:05.837Z,22.40
2018-04-19T08:25:08.596Z,22.40
2018-04-19T08:26:07.233Z,22.50
2018-04-19T08:27:04.850Z,22.50
2018-04-19T08:28:05.158Z,22.50
2018-04-19T08:29:05.555Z,22.60
2018-04-19T08:30:05.415Z,22.60
2018-04-19T08:31:05.792Z,22.60
2018-04-19T08:32:06.468Z,22.60
2018-04-19T08:33:04.859Z,22.60
2018-04-19T08:34:05.732Z,22.60
2018-04-19T08:35:07.042Z,22.60
2018-04-19T08:36:05.941Z,22.60
2018-04-19T08:37:06.175Z,22.60
2018-04-19T08:38:15.560Z,22.60
2018-04-19T08:39:10.494Z,22.70
2018-04-19T08:40:08.655Z,22.70
2018-04-19T08:41:06.484Z,22.70
2018-04-19T08:42:05.588Z,22.70
2018-04-19T08:43:05.202Z,22.70
2018-04-19T08:44:04.868Z,22.70
2018-04-19T08:45:05.805Z,22.70
2018-04-19T08:46:05.993Z,22.80
2018-04-19T08:47:04.868Z,22.80
2018-04-19T08:48:05.580Z,22.80
2018-04-19T08:49:08.790Z,22.90
2018-04-19T08:50:04.947Z,22.90
2018-04-19T08:51:10.601Z,22.90
2018-04-19T08:52:04.883Z,22.90
2018-04-19T08:53:05.705Z,23.00
2018-04-19T08:54:06.648Z,23.00
2018-04-19T08:55:05.212Z,23.00
2018-04-19T08:56:05.084Z,23.10
2018-04-19T08:57:05.770Z,23.10
2018-04-19T08:58:05.591Z,23.10
2018-04-19T08:59:04.902Z,23.10
2018-04-19T09:00:05.703Z,23.20
2018-04-19T09:01:05.522Z,23.20
2018-04-19T09:02:05.394Z,23.20
2018-04-19T09:03:06.975Z,23.20
2018-04-19T09:04:05.584Z,23.20
2018-04-19T09:05:07.199Z,23.30
2018-04-19T09:06:04.960Z,23.30
2018-04-19T09:07:06.790Z,23.30
2018-04-19T09:08:06.447Z,23.30
2018-04-19T09:09:05.462Z,23.30
2018-04-19T09:10:05.030Z,23.30
2018-04-19T09:11:05.212Z,23.40
2018-04-19T09:12:05.912Z,23.40
2018-04-19T09:13:06.095Z,23.40
2018-04-19T09:14:05.203Z,23.40
2018-04-19T09:15:05.598Z,23.50
2018-04-19T09:16:05.293Z,23.50
2018-04-19T09:17:05.522Z,23.50
2018-04-19T09:18:05.934Z,23.60
2018-04-19T09:19:06.285Z,23.60
2018-04-19T09:20:04.895Z,23.60
2018-04-19T09:21:05.339Z,23.70
2018-04-19T09:22:06.239Z,23.70
2018-04-19T09:23:05.288Z,23.70
2018-04-19T09:24:05.608Z,23.80
2018-04-19T09:25:05.299Z,23.80
2018-04-19T09:26:05.633Z,23.80
2018-04-19T09:27:05.124Z,23.80
2018-04-19T09:28:05.290Z,23.80
2018-04-19T09:29:06.800Z,23.90
2018-04-19T09:30:06.217Z,23.90
2018-04-19T09:31:05.291Z,23.90
2018-04-19T09:32:05.421Z,23.90
2018-04-19T09:33:05.109Z,23.90
2018-04-19T09:34:04.906Z,23.90
2018-04-19T09:35:05.420Z,24.00
2018-04-19T09:36:06.050Z,24.00
2018-04-19T09:37:06.061Z,24.10
2018-04-19T09:38:05.431Z,24.10
2018-04-19T09:39:05.299Z,24.10
2018-04-19T09:40:04.859Z,24.10
2018-04-19T09:41:07.039Z,24.20
2018-04-19T09:42:05.241Z,24.20
2018-04-19T09:43:05.735Z,24.30
2018-04-19T09:44:05.922Z,24.30
2018-04-19T09:45:05.936Z,24.30
2018-04-19T09:46:06.053Z,24.30
2018-04-19T09:47:05.745Z,24.30
2018-04-19T09:48:06.328Z,24.30
2018-04-19T09:49:04.931Z,24.20
2018-04-19T09:50:05.947Z,24.20
2018-04-19T09:51:05.458Z,24.20
2018-04-19T09:52:05.004Z,24.30
2018-04-19T09:53:04.935Z,24.30
2018-04-19T09:54:05.794Z,24.30
2018-04-19T09:55:05.628Z,24.30
2018-04-19T09:56:05.449Z,24.30
2018-04-19T09:57:05.314Z,24.30
2018-04-19T09:58:05.798Z,24.30
2018-04-19T09:59:04.698Z,24.30
2018-04-19T10:00:05.607Z,24.20
2018-04-19T10:01:05.415Z,24.20
2018-04-19T10:02:05.535Z,24.20
2018-04-19T10:03:06.807Z,24.20
2018-04-19T10:04:05.362Z,24.20
2018-04-19T10:05:05.167Z,24.10
2018-04-19T10:06:05.588Z,24.10
2018-04-19T10:07:05.594Z,24.10
2018-04-19T10:08:10.124Z,24.10
2018-04-19T10:09:05.346Z,24.00
2018-04-19T10:10:06.897Z,24.00
2018-04-19T10:11:06.490Z,24.00
2018-04-19T10:12:05.273Z,24.00
2018-04-19T10:13:04.978Z,24.00
2018-04-19T10:14:06.585Z,24.00
2018-04-19T10:15:05.598Z,24.00
2018-04-19T10:16:06.164Z,23.90
2018-04-19T10:17:05.998Z,23.90
2018-04-19T10:18:05.844Z,23.90
2018-04-19T10:19:05.304Z,23.90
2018-04-19T10:20:05.168Z,23.90
2018-04-19T10:21:05.478Z,24.00
2018-04-19T10:22:10.006Z,24.00
2018-04-19T10:23:05.353Z,24.00
2018-04-19T10:24:06.613Z,24.00
2018-04-19T10:25:06.036Z,24.10
2018-04-19T10:26:05.292Z,24.10
2018-04-19T10:27:06.814Z,24.10
2018-04-19T10:28:05.797Z,24.10
2018-04-19T10:29:05.182Z,24.10
2018-04-19T10:30:06.865Z,24.20
2018-04-19T10:31:05.387Z,24.20
2018-04-19T10:32:05.363Z,24.20
2018-04-19T10:33:07.349Z,24.20
2018-04-19T10:34:05.809Z,24.30
2018-04-19T10:35:05.487Z,24.30
2018-04-19T10:36:06.923Z,24.30
2018-04-19T10:37:05.434Z,24.30
2018-04-19T10:38:05.797Z,24.30
2018-04-19T10:39:05.517Z,24.30
2018-04-19T10:40:06.209Z,24.30
2018-04-19T10:41:05.376Z,24.30
2018-04-19T10:42:04.989Z,24.30
2018-04-19T10:43:05.071Z,24.30
2018-04-19T10:44:05.969Z,24.30
2018-04-19T10:45:08.960Z,24.30
2018-04-19T10:46:06.578Z,24.30
2018-04-19T10:47:06.660Z,24.30
2018-04-19T10:48:05.816Z,24.30
2018-04-19T10:49:05.682Z,24.30
2018-04-19T10:50:06.922Z,24.30
2018-04-19T10:51:05.038Z,24.30
2018-04-19T10:52:05.507Z,24.30
2018-04-19T10:53:05.646Z,24.30
2018-04-19T10:54:05.674Z,24.30
2018-04-19T10:55:05.010Z,24.30
2018-04-19T10:56:05.072Z,24.30
2018-04-19T10:57:06.015Z,24.30
2018-04-19T10:58:05.511Z,24.30
2018-04-19T10:59:05.006Z,24.30
2018-04-19T11:00:04.694Z,24.30
2018-04-19T11:01:05.633Z,24.30
2018-04-19T11:02:05.324Z,24.30
2018-04-19T11:03:05.873Z,24.30
2018-04-19T11:04:09.071Z,24.40
2018-04-19T11:05:05.334Z,24.30
2018-04-19T11:06:05.712Z,24.30
2018-04-19T11:07:06.446Z,24.30
2018-04-19T11:08:07.403Z,24.30
2018-04-19T11:09:10.022Z,24.30
2018-04-19T11:10:05.520Z,24.30
2018-04-19T11:11:06.965Z,24.30
2018-04-19T11:12:05.705Z,24.30
2018-04-19T11:13:05.020Z,24.30
2018-04-19T11:14:05.408Z,24.30
2018-04-19T11:15:05.108Z,24.30
2018-04-19T11:16:05.848Z,24.30
2018-04-19T11:17:05.152Z,24.40
2018-04-19T11:18:05.334Z,24.30
2018-04-19T11:19:06.310Z,24.40
2018-04-19T11:20:05.345Z,24.30
2018-04-19T11:21:05.408Z,24.30
2018-04-19T11:22:05.195Z,24.30
2018-04-19T11:23:04.717Z,24.30
2018-04-19T11:24:05.100Z,24.30
2018-04-19T11:25:05.412Z,24.30
2018-04-19T11:26:10.677Z,24.30
2018-04-19T11:27:05.101Z,24.30
2018-04-19T11:28:05.738Z,24.30
2018-04-19T11:29:05.965Z,24.30
2018-04-19T11:30:10.376Z,24.30
2018-04-19T11:31:06.360Z,24.30
2018-04-19T11:32:05.858Z,24.30
2018-04-19T11:33:07.284Z,24.30
2018-04-19T11:34:05.732Z,24.30
2018-04-19T11:35:05.485Z,24.30
2018-04-19T11:36:05.855Z,24.30
2018-04-19T11:37:05.616Z,24.30
2018-04-19T11:38:05.291Z,24.30
2018-04-19T11:39:05.242Z,24.40
2018-04-19T11:40:05.349Z,24.40
2018-04-19T11:41:05.053Z,24.40
2018-04-19T11:42:05.734Z,24.40
2018-04-19T11:43:05.666Z,24.40
2018-04-19T11:44:05.751Z,24.40
2018-04-19T11:45:05.237Z,24.40
2018-04-19T11:46:05.053Z,24.40
2018-04-19T11:47:08.033Z,24.40
2018-04-19T11:48:05.602Z,24.40
2018-04-19T11:49:10.579Z,24.40
2018-04-19T11:50:05.259Z,24.40
2018-04-19T11:51:09.767Z,24.50
2018-04-19T11:52:05.748Z,24.50
2018-04-19T11:53:06.275Z,24.50
2018-04-19T11:54:05.250Z,24.50
2018-04-19T11:55:04.813Z,24.50
2018-04-19T11:56:10.131Z,24.60
2018-04-19T11:57:05.130Z,24.50
2018-04-19T11:58:05.807Z,24.60
2018-04-19T11:59:05.466Z,24.50
2018-04-19T12:00:08.354Z,24.50
2018-04-19T12:01:05.419Z,24.50
2018-04-19T12:02:05.886Z,24.50
2018-04-19T12:03:05.656Z,24.50
2018-04-19T12:04:05.257Z,24.50
2018-04-19T12:05:04.757Z,24.50
2018-04-19T12:06:06.692Z,24.50
2018-04-19T12:07:05.369Z,24.50
2018-04-19T12:08:05.317Z,24.50
2018-04-19T12:09:05.143Z,24.50
2018-04-19T12:10:05.965Z,24.50
2018-04-19T12:11:05.256Z,24.50
2018-04-19T12:12:04.751Z,24.50
2018-04-19T12:13:05.257Z,24.50
2018-04-19T12:14:05.146Z,24.60
2018-04-19T12:15:05.693Z,24.60
2018-04-19T12:16:05.684Z,24.60
2018-04-19T12:17:05.454Z,24.60
2018-04-19T12:18:05.580Z,24.70
2018-04-19T12:19:06.753Z,24.70
2018-04-19T12:20:05.095Z,24.70
2018-04-19T12:21:05.145Z,24.70
2018-04-19T12:22:05.023Z,24.70
2018-04-19T12:23:07.090Z,24.70
2018-04-19T12:24:06.151Z,24.70
2018-04-19T12:25:06.086Z,24.70
2018-04-19T12:26:05.081Z,24.70
2018-04-19T12:27:05.393Z,24.70
2018-04-19T12:28:05.588Z,24.70
2018-04-19T12:29:05.096Z,24.70
2018-04-19T12:30:05.899Z,24.70
2018-04-19T12:31:06.575Z,24.70
2018-04-19T12:32:05.718Z,24.70
2018-04-19T12:33:05.257Z,24.70
2018-04-19T12:34:05.114Z,24.70
2018-04-19T12:35:05.464Z,24.70
2018-04-19T12:36:05.278Z,24.70
2018-04-19T12:37:05.533Z,24.80
2018-04-19T12:38:05.598Z,24.80
2018-04-19T12:39:05.477Z,24.80
2018-04-19T12:40:05.299Z,24.80
2018-04-19T12:41:05.415Z,24.80
2018-04-19T12:42:04.782Z,24.80
2018-04-19T12:43:06.752Z,24.80
2018-04-19T12:44:05.098Z,24.80
2018-04-19T12:45:05.422Z,24.80
2018-04-19T12:46:05.399Z,24.80
2018-04-19T12:47:05.919Z,24.80
2018-04-19T12:48:09.837Z,24.80
2018-04-19T12:49:06.868Z,24.80
2018-04-19T12:50:05.297Z,24.80
2018-04-19T12:51:05.934Z,24.80
2018-04-19T12:52:05.609Z,24.80
2018-04-19T12:53:05.422Z,24.80
2018-04-19T12:54:05.927Z,24.80
2018-04-19T12:55:05.186Z,24.80
2018-04-19T12:56:05.062Z,24.80
2018-04-19T12:57:05.180Z,24.80
2018-04-19T12:58:05.187Z,24.80